createdAt,value
2022-08-05T00:00:52.460Z,100611.94
2022-08-05T00:03:19.825Z,100613.56
2022-08-05T00:06:05.671Z,100622.25
2022-08-05T00:08:36.146Z,100605.84
2022-08-05T00:11:03.869Z,100608.09
2022-08-05T00:13:38.413Z,100603.09
2022-08-05T00:16:12.428Z,100607.19
2022-08-05T00:18:39.990Z,100603.47
2022-08-05T00:21:09.057Z,100603.69
2022-08-05T00:23:44.741Z,100593.44
2022-08-05T00:26:13.949Z,100587.50
2022-08-05T00:28:43.903Z,100595.31
2022-08-05T00:31:13.180Z,100602.38
2022-08-05T00:34:54.674Z,100593.00
2022-08-05T00:37:10.602Z,100592.03
2022-08-05T00:39:15.012Z,100612.09
2022-08-05T00:41:51.593Z,100597.44
2022-08-05T00:44:23.226Z,100590.56
2022-08-05T00:47:02.059Z,100601.75
2022-08-05T00:49:32.738Z,100586.72
2022-08-05T00:52:11.999Z,100593.34
2022-08-05T00:54:38.894Z,100593.53
2022-08-05T00:57:06.480Z,100578.00
2022-08-05T00:59:34.719Z,100575.09
2022-08-05T01:02:16.873Z,100586.47
2022-08-05T01:04:43.795Z,100570.75
2022-08-05T01:07:13.741Z,100579.47
2022-08-05T01:09:41.780Z,100569.28
2022-08-05T01:12:17.867Z,100564.75
2022-08-05T01:14:46.286Z,100562.59
2022-08-05T01:17:13.352Z,100566.81
2022-08-05T01:20:02.123Z,100571.25
2022-08-05T01:22:28.150Z,100561.00
2022-08-05T01:24:55.312Z,100565.94
2022-08-05T01:27:22.361Z,100567.31
2022-08-05T01:29:49.874Z,100571.13
2022-08-05T01:32:18.912Z,100565.50
2022-08-05T01:34:46.188Z,100578.22
2022-08-05T01:37:24.360Z,100572.69
2022-08-05T01:39:51.841Z,100581.25
2022-08-05T01:42:21.336Z,100581.25
2022-08-05T01:44:54.172Z,100585.22
2022-08-05T01:47:22.852Z,100579.91
2022-08-05T01:50:01.239Z,100586.69
2022-08-05T01:52:29.609Z,100587.28
2022-08-05T01:54:58.799Z,100580.81
2022-08-05T01:58:12.558Z,100591.88
2022-08-05T02:00:15.135Z,100596.22
2022-08-05T02:02:46.549Z,100606.75
2022-08-05T02:05:23.556Z,100604.13
2022-08-05T02:08:01.386Z,100601.13
2022-08-05T02:10:28.900Z,100601.09
2022-08-05T02:12:55.800Z,100590.94
2022-08-05T02:15:23.091Z,100596.31
2022-08-05T02:18:33.258Z,100590.59
2022-08-05T02:20:39.047Z,100597.00
2022-08-05T02:23:06.384Z,100606.22
2022-08-05T02:25:50.129Z,100616.72
2022-08-05T02:28:28.479Z,100627.66
2022-08-05T02:30:57.529Z,100627.38
2022-08-05T02:33:38.191Z,100617.78
2022-08-05T02:36:06.248Z,100630.16
2022-08-05T02:38:36.894Z,100633.16
2022-08-05T02:41:14.672Z,100622.88
2022-08-05T02:44:06.299Z,100598.22
2022-08-05T02:46:32.073Z,100594.31
2022-08-05T02:48:59.792Z,100609.81
2022-08-05T02:51:28.291Z,100617.97
2022-08-05T02:54:34.841Z,100598.16
2022-08-05T02:57:01.524Z,100596.81
2022-08-05T02:59:28.648Z,100589.78
2022-08-05T03:02:01.958Z,100591.00
2022-08-05T03:04:29.317Z,100565.63
2022-08-05T03:06:59.344Z,100561.28
2022-08-05T03:09:36.326Z,100561.50
2022-08-05T03:12:04.944Z,100595.94
2022-08-05T03:14:31.888Z,100615.72
2022-08-05T03:16:59.033Z,100634.47
2022-08-05T03:19:33.174Z,100634.81
2022-08-05T03:22:02.300Z,100627.13
2022-08-05T03:24:32.157Z,100640.75
2022-08-05T03:27:00.894Z,100649.91
2022-08-05T03:29:44.765Z,100651.75
2022-08-05T03:32:14.364Z,100637.69
2022-08-05T03:34:41.415Z,100627.25
2022-08-05T03:37:08.565Z,100616.84
2022-08-05T03:39:59.379Z,100620.34
2022-08-05T03:42:27.114Z,100636.88
2022-08-05T03:44:55.847Z,100648.91
2022-08-05T03:47:24.345Z,100636.66
2022-08-05T03:49:52.455Z,100639.72
2022-08-05T03:52:36.992Z,100647.28
2022-08-05T03:56:01.645Z,100649.91
2022-08-05T03:57:53.608Z,100626.41
2022-08-05T04:00:25.934Z,100640.53
2022-08-05T04:02:58.515Z,100653.53
2022-08-05T04:05:26.007Z,100676.47
2022-08-05T04:07:58.296Z,100686.25
2022-08-05T04:10:27.634Z,100702.25
2022-08-05T04:12:55.073Z,100718.22
2022-08-05T04:15:24.333Z,100731.47
2022-08-05T04:17:57.145Z,100735.53
2022-08-05T04:20:24.242Z,100737.03
2022-08-05T04:22:51.344Z,100724.63
2022-08-05T04:25:18.271Z,100730.66
2022-08-05T04:27:57.227Z,100730.91
2022-08-05T04:30:26.479Z,100753.22
2022-08-05T04:32:53.599Z,100784.78
2022-08-05T04:35:20.647Z,100775.09
2022-08-05T04:38:02.616Z,100776.91
2022-08-05T04:40:33.522Z,100804.97
2022-08-05T04:43:00.387Z,100804.78
2022-08-05T04:45:47.817Z,100820.25
2022-08-05T04:48:18.593Z,100817.72
2022-08-05T04:51:03.002Z,100813.06
2022-08-05T04:53:38.881Z,100793.84
2022-08-05T04:56:32.659Z,100793.28
2022-08-05T04:58:53.138Z,100796.16
2022-08-05T05:02:05.827Z,100784.41
2022-08-05T05:04:07.061Z,100774.31
2022-08-05T05:06:39.919Z,100766.91
2022-08-05T05:09:14.022Z,100757.38
2022-08-05T05:11:53.166Z,100746.28
2022-08-05T05:14:27.827Z,100745.34
2022-08-05T05:17:00.693Z,100761.78
2022-08-05T05:19:37.232Z,100758.50
2022-08-05T05:22:24.015Z,100773.66
2022-08-05T05:24:57.654Z,100783.56
2022-08-05T05:27:41.735Z,100791.81
2022-08-05T05:30:15.682Z,100784.50
2022-08-05T05:32:56.846Z,100762.69
2022-08-05T05:35:27.172Z,100717.91
2022-08-05T05:38:01.487Z,100691.09
2022-08-05T05:40:29.113Z,100659.44
2022-08-05T05:42:56.769Z,100641.03
2022-08-05T05:45:24.535Z,100649.78
2022-08-05T05:48:06.164Z,100677.47
2022-08-05T05:50:41.103Z,100695.34
2022-08-05T05:53:22.281Z,100706.38
2022-08-05T05:55:51.525Z,100705.41
2022-08-05T05:58:31.743Z,100699.31
2022-08-05T06:01:02.515Z,100677.03
2022-08-05T06:04:01.100Z,100665.38
2022-08-05T06:06:28.148Z,100674.13
2022-08-05T06:08:58.636Z,100693.22
2022-08-05T06:11:26.089Z,100699.69
2022-08-05T06:13:56.227Z,100702.88
2022-08-05T06:16:31.006Z,100689.75
2022-08-05T06:19:01.294Z,100696.84
2022-08-05T06:21:36.720Z,100700.56
2022-08-05T06:24:05.261Z,100696.84
2022-08-05T06:26:34.971Z,100686.50
2022-08-05T06:29:03.528Z,100693.78
2022-08-05T06:31:34.328Z,100702.69
2022-08-05T06:34:07.570Z,100708.09
2022-08-05T06:36:53.691Z,100708.69
2022-08-05T06:39:26.859Z,100715.97
2022-08-05T06:41:54.589Z,100711.72
2022-08-05T06:44:22.035Z,100714.63
2022-08-05T06:46:51.088Z,100713.56
2022-08-05T06:49:18.792Z,100719.53
2022-08-05T06:51:45.994Z,100723.91
2022-08-05T06:54:19.282Z,100727.00
2022-08-05T06:56:54.923Z,100730.03
2022-08-05T06:59:42.384Z,100737.88
2022-08-05T07:02:23.604Z,100758.63
2022-08-05T07:04:51.773Z,100757.44
2022-08-05T07:07:24.105Z,100767.38
2022-08-05T07:10:03.389Z,100776.81
2022-08-05T07:12:49.415Z,100768.56
2022-08-05T07:16:02.029Z,100779.56
2022-08-05T07:18:28.954Z,100771.34
2022-08-05T07:20:56.593Z,100774.38
2022-08-05T07:23:26.388Z,100777.66
2022-08-05T07:25:57.156Z,100782.53
2022-08-05T07:28:25.393Z,100789.25
2022-08-05T07:30:55.087Z,100788.59
2022-08-05T07:33:36.450Z,100780.47
2022-08-05T07:36:21.163Z,100789.50
2022-08-05T07:38:49.132Z,100774.00
2022-08-05T07:42:08.806Z,100769.66
2022-08-05T07:44:14.419Z,100788.66
2022-08-05T07:46:48.177Z,100789.44
2022-08-05T07:49:16.294Z,100792.03
2022-08-05T07:51:53.092Z,100791.47
2022-08-05T07:54:26.512Z,100772.19
2022-08-05T07:57:01.718Z,100769.97
2022-08-05T07:59:41.248Z,100753.03
2022-08-05T08:02:10.731Z,100754.47
2022-08-05T08:04:44.950Z,100755.72
2022-08-05T08:07:12.121Z,100774.72
2022-08-05T08:09:38.949Z,100778.75
2022-08-05T08:12:14.581Z,100790.94
2022-08-05T08:14:52.816Z,100802.00
2022-08-05T08:17:19.636Z,100794.34
2022-08-05T08:20:23.031Z,100803.19
2022-08-05T08:22:35.321Z,100829.94
2022-08-05T08:25:02.763Z,100833.69
2022-08-05T08:27:40.088Z,100831.50
2022-08-05T08:30:29.394Z,100831.66
2022-08-05T08:33:02.427Z,100820.84
2022-08-05T08:35:35.262Z,100806.34
2022-08-05T08:38:08.458Z,100788.63
2022-08-05T08:40:38.586Z,100806.31
2022-08-05T08:45:16.139Z,100794.13
2022-08-05T08:45:52.261Z,100798.88
2022-08-05T08:48:41.344Z,100800.16
2022-08-05T08:52:01.669Z,100799.63
2022-08-05T08:53:53.251Z,100785.47
2022-08-05T08:56:23.484Z,100784.38
2022-08-05T08:58:53.857Z,100791.47
2022-08-05T09:01:20.776Z,100804.19
2022-08-05T09:03:54.516Z,100811.06
2022-08-05T09:06:28.086Z,100800.78
2022-08-05T09:08:57.258Z,100794.56
2022-08-05T09:11:51.155Z,100803.59
2022-08-05T09:14:57.274Z,100792.78
2022-08-05T09:16:57.973Z,100781.16
2022-08-05T09:19:28.018Z,100775.88
2022-08-05T09:22:22.686Z,100795.84
2022-08-05T09:24:50.522Z,100794.09
2022-08-05T09:27:18.832Z,100793.69
2022-08-05T09:30:06.553Z,100792.00
2022-08-05T09:32:40.772Z,100780.56
2022-08-05T09:35:12.734Z,100788.31
2022-08-05T09:38:16.593Z,100779.59
2022-08-05T09:40:41.049Z,100781.88
2022-08-05T09:43:18.917Z,100798.75
2022-08-05T09:46:06.177Z,100805.06
2022-08-05T09:48:33.732Z,100792.00
2022-08-05T09:51:00.595Z,100786.25
2022-08-05T09:53:54.281Z,100781.75
2022-08-05T09:56:14.930Z,100782.44
2022-08-05T09:58:42.511Z,100786.13
2022-08-05T10:01:13.542Z,100781.06
2022-08-05T10:03:58.576Z,100790.28
2022-08-05T10:06:27.477Z,100786.50
2022-08-05T10:08:55.653Z,100781.72
2022-08-05T10:11:22.830Z,100774.31
2022-08-05T10:13:49.786Z,100778.22
2022-08-05T10:16:21.626Z,100780.44
2022-08-05T10:18:48.453Z,100769.66
2022-08-05T10:21:18.258Z,100776.34
2022-08-05T10:23:59.624Z,100787.75
2022-08-05T10:26:32.386Z,100786.97
2022-08-05T10:28:59.790Z,100796.16
2022-08-05T10:33:01.294Z,100785.00
2022-08-05T10:34:13.780Z,100781.28
2022-08-05T10:36:41.132Z,100781.84
2022-08-05T10:39:10.555Z,100783.31
2022-08-05T10:41:45.340Z,100778.34
2022-08-05T10:44:14.002Z,100781.59
2022-08-05T10:46:43.381Z,100787.50
2022-08-05T10:49:16.677Z,100796.41
2022-08-05T10:51:57.504Z,100799.59
2022-08-05T10:54:29.855Z,100792.38
2022-08-05T10:56:58.679Z,100788.13
2022-08-05T11:00:03.354Z,100776.81
2022-08-05T11:02:14.510Z,100776.31
2022-08-05T11:05:00.357Z,100781.88
2022-08-05T11:07:33.150Z,100779.56
2022-08-05T11:10:14.016Z,100784.59
2022-08-05T11:12:42.211Z,100786.91
2022-08-05T11:15:19.289Z,100785.53
2022-08-05T11:17:59.654Z,100770.81
2022-08-05T11:20:28.597Z,100777.28
2022-08-05T11:23:05.832Z,100779.38
2022-08-05T11:26:04.686Z,100787.78
2022-08-05T11:28:19.738Z,100777.88
2022-08-05T11:30:49.201Z,100773.38
2022-08-05T11:33:21.143Z,100771.81
2022-08-05T11:36:08.101Z,100791.06
2022-08-05T11:38:45.769Z,100784.81
2022-08-05T11:41:54.641Z,100786.75
2022-08-05T11:44:08.405Z,100793.25
2022-08-05T11:46:35.519Z,100793.22
2022-08-05T11:49:02.318Z,100785.72
2022-08-05T11:51:49.206Z,100781.50
2022-08-05T11:54:15.948Z,100797.84
2022-08-05T11:56:42.919Z,100793.72
2022-08-05T11:59:17.117Z,100788.00
2022-08-05T12:01:48.291Z,100787.28
2022-08-05T12:04:19.319Z,100783.28
2022-08-05T12:06:49.198Z,100774.56
2022-08-05T12:09:20.245Z,100767.56
2022-08-05T12:11:47.302Z,100772.19
2022-08-05T12:14:14.409Z,100774.72
2022-08-05T12:16:45.123Z,100775.13
2022-08-05T12:20:27.120Z,100785.22
2022-08-05T12:21:59.933Z,100793.09
2022-08-05T12:24:28.107Z,100783.66
2022-08-05T12:26:56.862Z,100790.59
2022-08-05T12:29:24.498Z,100796.22
2022-08-05T12:31:53.872Z,100777.88
2022-08-05T12:34:23.628Z,100782.03
2022-08-05T12:36:50.764Z,100769.63
2022-08-05T12:39:19.074Z,100788.00
2022-08-05T12:41:46.037Z,100771.63
2022-08-05T12:44:14.274Z,100776.34
2022-08-05T12:46:48.323Z,100779.78
2022-08-05T12:49:19.045Z,100778.09
2022-08-05T12:52:11.158Z,100787.09
2022-08-05T12:54:32.886Z,100776.66
2022-08-05T12:56:59.688Z,100771.94
2022-08-05T12:59:46.866Z,100787.63
2022-08-05T13:02:13.456Z,100793.69
2022-08-05T13:04:41.856Z,100792.03
2022-08-05T13:07:41.387Z,100800.00
2022-08-05T13:10:06.110Z,100801.97
2022-08-05T13:12:36.575Z,100801.06
2022-08-05T13:15:24.121Z,100798.41
2022-08-05T13:17:51.436Z,100815.34
2022-08-05T13:20:24.628Z,100822.38
2022-08-05T13:22:53.002Z,100809.91
2022-08-05T13:25:22.124Z,100808.84
2022-08-05T13:28:07.563Z,100818.47
2022-08-05T13:30:39.081Z,100803.16
2022-08-05T13:33:06.165Z,100807.44
2022-08-05T13:35:47.161Z,100806.56
2022-08-05T13:38:28.420Z,100825.13
2022-08-05T13:40:58.047Z,100841.34
2022-08-05T13:43:45.652Z,100838.44
2022-08-05T13:46:11.760Z,100845.31
2022-08-05T13:48:57.367Z,100837.88
2022-08-05T13:51:25.449Z,100824.47
2022-08-05T13:53:58.034Z,100843.88
2022-08-05T13:56:25.957Z,100846.19
2022-08-05T13:58:53.987Z,100866.50
2022-08-05T14:01:25.889Z,100865.81
2022-08-05T14:04:21.976Z,100877.22
2022-08-05T14:06:58.730Z,100898.97
2022-08-05T14:09:43.002Z,100902.03
2022-08-05T14:12:17.986Z,100906.28
2022-08-05T14:14:45.255Z,100913.03
2022-08-05T14:17:16.861Z,100908.47
2022-08-05T14:20:00.929Z,100910.56
2022-08-05T14:22:34.555Z,100916.03
2022-08-05T14:25:01.477Z,100916.38
2022-08-05T14:27:28.470Z,100915.16
2022-08-05T14:29:55.289Z,100926.63
2022-08-05T14:32:27.823Z,100933.47
2022-08-05T14:34:56.988Z,100948.75
2022-08-05T14:37:47.206Z,100965.28
2022-08-05T14:40:14.154Z,100969.47
2022-08-05T14:42:43.525Z,100976.50
2022-08-05T14:45:10.374Z,100986.84
2022-08-05T14:48:02.495Z,100988.59
2022-08-05T14:50:25.336Z,101006.81
2022-08-05T14:52:57.046Z,101008.28
2022-08-05T14:55:25.876Z,101016.41
2022-08-05T14:58:11.417Z,101009.94
2022-08-05T15:00:39.213Z,101020.56
2022-08-05T15:03:25.831Z,101023.97
2022-08-05T15:06:07.673Z,101036.91
2022-08-05T15:08:59.552Z,101054.34
2022-08-05T15:11:51.903Z,101055.81
2022-08-05T15:14:33.605Z,101073.41
2022-08-05T15:17:00.198Z,101082.75
2022-08-05T15:19:27.088Z,101085.13
2022-08-05T15:21:54.657Z,101084.63
2022-08-05T15:24:26.917Z,101095.09
2022-08-05T15:26:53.727Z,101103.94
2022-08-05T15:29:22.709Z,101106.84
2022-08-05T15:31:53.083Z,101105.78
2022-08-05T15:34:31.998Z,101112.00
2022-08-05T15:37:03.430Z,101110.41
2022-08-05T15:40:41.798Z,101114.16
2022-08-05T15:42:53.590Z,101122.66
2022-08-05T15:45:06.054Z,101116.66
2022-08-05T15:47:35.951Z,101117.63
2022-08-05T15:50:03.171Z,101109.19
2022-08-05T15:52:54.551Z,101114.97
2022-08-05T15:55:19.532Z,101110.84
2022-08-05T15:57:52.014Z,101099.81
2022-08-05T16:00:30.460Z,101113.56
2022-08-05T16:03:05.673Z,101112.16
2022-08-05T16:05:32.589Z,101124.47
2022-08-05T16:08:00.145Z,101130.44
2022-08-05T16:10:27.198Z,101126.75
2022-08-05T16:12:56.069Z,101141.84
2022-08-05T16:15:23.130Z,101131.75
2022-08-05T16:17:57.912Z,101125.31
2022-08-05T16:20:25.090Z,101133.53
2022-08-05T16:22:51.952Z,101136.78
2022-08-05T16:25:18.748Z,101148.13
2022-08-05T16:28:00.670Z,101156.06
2022-08-05T16:30:32.207Z,101160.41
2022-08-05T16:32:59.027Z,101163.13
2022-08-05T16:35:28.667Z,101174.94
2022-08-05T16:38:13.541Z,101173.22
2022-08-05T16:40:47.821Z,101183.41
2022-08-05T16:43:24.702Z,101183.66
2022-08-05T16:46:06.745Z,101188.78
2022-08-05T16:48:39.089Z,101175.81
2022-08-05T16:51:09.067Z,101181.69
2022-08-05T16:54:04.180Z,101176.03
2022-08-05T16:56:23.509Z,101177.53
2022-08-05T16:58:50.319Z,101184.25
2022-08-05T17:01:18.734Z,101184.81
2022-08-05T17:03:45.910Z,101187.34
2022-08-05T17:06:12.730Z,101180.69
2022-08-05T17:08:52.763Z,101186.72
2022-08-05T17:11:20.893Z,101187.97
2022-08-05T17:13:50.804Z,101186.38
2022-08-05T17:16:32.974Z,101186.56
2022-08-05T17:19:00.585Z,101174.34
2022-08-05T17:21:35.421Z,101184.22
2022-08-05T17:24:04.328Z,101185.34
2022-08-05T17:26:34.999Z,101188.53
2022-08-05T17:29:07.295Z,101196.38
2022-08-05T17:31:57.033Z,101192.03
2022-08-05T17:34:30.093Z,101188.84
2022-08-05T17:36:59.336Z,101196.72
2022-08-05T17:39:34.680Z,101196.66
2022-08-05T17:42:18.440Z,101204.09
2022-08-05T17:44:51.161Z,101207.16
2022-08-05T17:47:18.936Z,101213.66
2022-08-05T17:50:00.002Z,101222.31
2022-08-05T17:52:31.331Z,101229.81
2022-08-05T17:54:58.224Z,101227.91
2022-08-05T17:57:25.043Z,101240.06
2022-08-05T18:00:03.686Z,101243.28
2022-08-05T18:02:32.700Z,101243.84
2022-08-05T18:05:02.841Z,101237.06
2022-08-05T18:07:41.536Z,101246.38
2022-08-05T18:10:10.429Z,101245.13
2022-08-05T18:12:37.723Z,101242.00
2022-08-05T18:15:04.839Z,101243.47
2022-08-05T18:17:58.739Z,101254.06
2022-08-05T18:20:19.665Z,101263.06
2022-08-05T18:22:57.473Z,101249.47
2022-08-05T18:25:25.140Z,101256.63
2022-08-05T18:27:52.865Z,101264.34
2022-08-05T18:30:19.754Z,101258.59
2022-08-05T18:32:53.662Z,101259.00
2022-08-05T18:35:28.354Z,101255.34
2022-08-05T18:38:18.918Z,101261.94
2022-08-05T18:42:00.673Z,101266.44
2022-08-05T18:43:38.088Z,101260.88
2022-08-05T18:46:10.074Z,101271.72
2022-08-05T18:48:41.615Z,101271.13
2022-08-05T18:52:05.361Z,101273.06
2022-08-05T18:54:14.221Z,101278.28
2022-08-05T18:56:41.201Z,101289.38
2022-08-05T18:59:43.777Z,101279.94
2022-08-05T19:02:04.524Z,101294.63
2022-08-05T19:05:01.699Z,101302.53
2022-08-05T19:07:25.129Z,101316.97
2022-08-05T19:09:56.676Z,101312.72
2022-08-05T19:12:23.576Z,101316.25
2022-08-05T19:15:00.638Z,101313.41
2022-08-05T19:17:59.469Z,101308.91
2022-08-05T19:20:16.536Z,101314.88
2022-08-05T19:22:44.395Z,101318.66
2022-08-05T19:25:11.215Z,101318.97
2022-08-05T19:27:56.939Z,101331.53
2022-08-05T19:30:23.959Z,101339.31
2022-08-05T19:32:50.870Z,101333.97
2022-08-05T19:35:17.771Z,101338.91
2022-08-05T19:38:06.172Z,101345.31
2022-08-05T19:40:34.985Z,101351.81
2022-08-05T19:43:05.265Z,101354.00
2022-08-05T19:45:36.275Z,101365.56
2022-08-05T19:48:04.488Z,101371.50
2022-08-05T19:50:32.946Z,101368.19
2022-08-05T19:53:09.603Z,101376.53
2022-08-05T19:56:15.272Z,101369.72
2022-08-05T19:58:29.319Z,101365.97
2022-08-05T20:00:56.919Z,101361.84
2022-08-05T20:03:24.641Z,101361.00
2022-08-05T20:05:56.364Z,101374.50
2022-08-05T20:08:24.248Z,101381.25
2022-08-05T20:10:51.663Z,101387.78
2022-08-05T20:13:30.365Z,101387.50
2022-08-05T20:16:06.001Z,101388.47
2022-08-05T20:18:36.151Z,101392.22
2022-08-05T20:21:04.679Z,101395.59
2022-08-05T20:23:40.055Z,101399.16
2022-08-05T20:26:17.720Z,101405.19
2022-08-05T20:28:44.658Z,101408.63
2022-08-05T20:31:11.548Z,101418.78
2022-08-05T20:33:38.447Z,101416.22
2022-08-05T20:36:10.198Z,101423.44
2022-08-05T20:38:38.093Z,101427.63
2022-08-05T20:41:08.442Z,101429.59
2022-08-05T20:43:58.762Z,101430.38
2022-08-05T20:46:24.825Z,101433.44
2022-08-05T20:48:52.062Z,101444.72
2022-08-05T20:51:18.864Z,101448.69
2022-08-05T20:53:56.442Z,101446.34
2022-08-05T20:56:27.699Z,101452.59
2022-08-05T20:58:59.995Z,101446.34
2022-08-05T21:01:38.783Z,101441.09
2022-08-05T21:04:10.020Z,101441.47
2022-08-05T21:06:37.650Z,101453.69
2022-08-05T21:09:12.253Z,101465.81
2022-08-05T21:12:07.602Z,101472.44
2022-08-05T21:14:28.667Z,101471.41
2022-08-05T21:17:01.465Z,101492.19
2022-08-05T21:19:29.840Z,101490.50
2022-08-05T21:22:14.603Z,101485.66
2022-08-05T21:24:41.404Z,101486.13
2022-08-05T21:27:09.430Z,101489.34
2022-08-05T21:29:40.738Z,101498.72
2022-08-05T21:32:07.780Z,101501.78
2022-08-05T21:34:35.384Z,101508.84
2022-08-05T21:37:02.551Z,101518.91
2022-08-05T21:39:29.513Z,101525.97
2022-08-05T21:42:01.947Z,101522.25
2022-08-05T21:44:29.232Z,101530.09
2022-08-05T21:46:58.339Z,101536.47
2022-08-05T21:49:48.655Z,101544.22
2022-08-05T21:52:16.526Z,101538.22
2022-08-05T21:54:51.129Z,101539.13
2022-08-05T21:57:31.611Z,101534.31
2022-08-05T22:00:05.823Z,101521.78
2022-08-05T22:02:33.843Z,101521.00
2022-08-05T22:05:00.677Z,101522.13
2022-08-05T22:07:39.483Z,101533.66
2022-08-05T22:10:14.681Z,101546.19
2022-08-05T22:12:44.704Z,101557.13
2022-08-05T22:15:12.059Z,101556.34
2022-08-05T22:17:56.292Z,101546.44
2022-08-05T22:20:26.495Z,101546.59
2022-08-05T22:23:17.099Z,101549.25
2022-08-05T22:26:10.573Z,101558.31
2022-08-05T22:28:38.673Z,101566.09
2022-08-05T22:31:05.950Z,101565.13
2022-08-05T22:33:55.907Z,101564.25
2022-08-05T22:36:24.050Z,101572.06
2022-08-05T22:38:51.113Z,101585.88
2022-08-05T22:42:05.019Z,101594.66
2022-08-05T22:44:04.828Z,101596.63
2022-08-05T22:46:32.101Z,101588.59
2022-08-05T22:48:59.307Z,101588.88
2022-08-05T22:52:02.748Z,101597.31
2022-08-05T22:54:12.904Z,101595.75
2022-08-05T22:56:40.895Z,101599.44
2022-08-05T22:59:44.236Z,101604.44
2022-08-05T23:02:05.725Z,101595.88
2022-08-05T23:04:34.435Z,101601.03
2022-08-05T23:07:01.321Z,101596.59
2022-08-05T23:09:57.951Z,101599.91
2022-08-05T23:12:17.657Z,101600.00
2022-08-05T23:14:44.574Z,101602.53
2022-08-05T23:17:24.466Z,101605.31
2022-08-05T23:19:59.678Z,101599.19
2022-08-05T23:22:27.200Z,101610.00
2022-08-05T23:24:54.682Z,101606.84
2022-08-05T23:27:21.497Z,101612.09
2022-08-05T23:29:50.661Z,101610.88
2022-08-05T23:32:22.551Z,101612.66
2022-08-05T23:34:49.504Z,101618.63
2022-08-05T23:37:17.726Z,101620.16
2022-08-05T23:39:54.577Z,101625.06
2022-08-05T23:42:23.410Z,101629.91
2022-08-05T23:44:54.439Z,101638.34
2022-08-05T23:47:21.457Z,101639.34
2022-08-05T23:49:52.001Z,101650.31
2022-08-05T23:52:36.135Z,101653.75
2022-08-05T23:55:16.373Z,101650.75
2022-08-05T23:57:44.264Z,101657.94
